Saturday, December 20, 2014
17:15 UTC
  |  Log In   |  Register Free
Airport Search:

Hampton Roads Executive Airport
(KPVG)

Hampton Roads Executive Airport Diagram
No Airport Diagram Available

FAA data valid effective November 13, 2014 - January 08, 2015 (unless otherwise noted).

 
 
 
 
 
 
 
 
 
 
 
 
 
 

Current Aviation Weather for Hampton Roads Executive Airport (KPVG)

The most recent METAR observation for KPVG was updated at: 2118
METAR Summary (Translated METAR)
KPVG
182115Z AUTO 00000KT 10SM CLR 07/M04 A3011 RMK AO1
KCPK
182055Z AUTO 28003KT 10SM CLR 09/M02 A3010 RMK AO2
(9.2 nm SE from KPVG)
KSFQ
182055Z AUTO 30004KT 10SM CLR 07/M03 A3009 RMK AO2 T00671034
(9.4 nm SW from KPVG)
TAF
No TAF information found within 50 nm of KPVG
  Airport Weather Conditions for KPVG

 Current Weather at PVG
37° F
Fair
Northeast winds at 5.8 mph
PVG NOAA Radar

Pressure: 30.34 in
Humidity: 75%
Wind: Northeast at 5.8 MPH (5 KT)
Dew Point: 30.2°F
Visibility: 10.00 mi


Airport Weather Forecast for KPVG

Translated METAR and TAF for KPVG
Translated METAR for KPVG (1716 UTC 20 December 2014)
found at http://aviationweather.gov/adds/metars/
 
METAR text: KPVG 201655Z AUTO 02005KT 10SM FEW100 04/M01 A3031 RMK AO1
Conditions at: KPVG (NORFOLK/HAMPTON , VA, US) observed 1655 UTC 20 December 2014
Temperature: 4.0°C (39°F)
Dewpoint: -1.0°C (30°F) [RH = 70%]
Pressure (altimeter): 30.31 inches Hg (1026.5 mb)
Winds: from the NNE (20 degrees) at 6 MPH (5 knots; 2.6 m/s)
Visibility: 10 or more miles (16+ km)
Ceiling: at least 12,000 feet AGL
Clouds: few clouds at 10000 feet AGL
Weather: automated observation with no human augmentation;
there may or may not be significant weather present at this time
Translated TAF for KPVG

There is no translated TAF available for this airport

Find All Airport Services Find A Hotel Find A Rental Car Find A Golf Course Find A Restaurant $100 Hamburger



FBO's on the Field
FBO Company Facility Photos Services Transportation Aviation Fuel Prices: Prices include tax
Catering Weather Repair Courtesy Rental Type 100LL JetA JetA+ MOGAS 8087
 
Hampton Roads Executive Airport

This FBO has not yet been rated
FS:Shell
Last Updated: Nov-24
Login to update fuel prices
SS:
Contact Hampton Roads Executive AirportMore FBO Information
 
Add another FBO Facility Photos Catering Weather Repair Courtesy Rental Type 100LL JetA JetA+ MOGAS 8087
Services Transportation Aviation Fuel Prices: Prices include tax


model-print
model-print
model-print
model-print